Time;durP1;ratioP1;P1;durP2;ratioP2;P2;SDS_P1;SDS_P2;PMS_P1;PMS_P2;Temp;Humidity;BMP_temperature;BMP_pressure;BME280_temperature;BME280_humidity;BME280_pressure;Samples;Min_cycle;Max_cycle;Signal;HPM_P1;HPM_P2
2023/06/07 00:02:00;;;;;;;;;;;15.60;99.90;;;;;;5049106;28;19912;-84
2023/06/07 00:04:26;;;;;;;;;;;15.50;99.90;;;;;;5062655;28;20403;-81
2023/06/07 00:06:56;;;;;;;;;;;15.40;99.90;;;;;;5044751;28;19924;-83
2023/06/07 00:09:22;;;;;;;;;;;15.40;99.90;;;;;;5061116;28;19916;-81
2023/06/07 00:11:47;;;;;;;;;;;15.40;99.90;;;;;;5038164;28;19912;-83
2023/06/07 00:14:13;;;;;;;;;;;15.40;99.90;;;;;;5059744;28;20445;-81
2023/06/07 00:16:38;;;;;;;;;;;15.40;99.90;;;;;;5061007;28;19913;-81
2023/06/07 00:19:06;;;;;;;;;;;15.40;99.90;;;;;;5060098;28;19947;-82
2023/06/07 00:21:32;;;;;;;;;;;15.40;99.90;;;;;;5050899;28;19912;-80
2023/06/07 00:23:57;;;;;;;;;;;15.30;99.90;;;;;;5053409;28;19951;-84
2023/06/07 00:26:23;;;;;;;;;;;15.30;99.90;;;;;;5061334;28;20436;-80
2023/06/07 00:28:49;;;;;;;;;;;15.20;99.90;;;;;;5056981;28;19908;-80
2023/06/07 00:31:14;;;;;;;;;;;15.20;99.90;;;;;;5060688;28;19918;-84
2023/06/07 00:33:40;;;;;;;;;;;15.10;99.90;;;;;;5059024;28;19908;-81
2023/06/07 00:36:05;;;;;;;;;;;15.10;99.90;;;;;;5063795;28;19916;-82
2023/06/07 00:38:31;;;;;;;;;;;15.20;99.90;;;;;;5055631;28;19935;-83
2023/06/07 00:40:56;;;;;;;;;;;15.10;99.90;;;;;;5059507;28;19918;-83
2023/06/07 00:43:24;;;;;;;;;;;15.10;99.90;;;;;;5058893;28;20041;-81
2023/06/07 00:45:50;;;;;;;;;;;15.10;99.90;;;;;;5060340;28;19916;-82
2023/06/07 00:48:15;;;;;;;;;;;15.00;99.90;;;;;;5050296;28;19919;-84
2023/06/07 00:50:49;;;;;;;;;;;15.00;99.90;;;;;;5062976;28;19912;-84
2023/06/07 00:53:16;;;;;;;;;;;15.00;99.90;;;;;;5061105;28;19912;-85
2023/06/07 00:55:42;;;;;;;;;;;15.10;99.90;;;;;;5061525;28;19923;-82
2023/06/07 00:58:07;;;;;;;;;;;15.10;99.90;;;;;;5043809;28;20439;-83
2023/06/07 01:00:33;;;;;;;;;;;15.10;99.90;;;;;;5061397;28;19916;-82
2023/06/07 01:02:58;;;;;;;;;;;15.10;99.90;;;;;;5055300;28;19912;-85
2023/06/07 01:05:24;;;;;;;;;;;15.10;99.90;;;;;;5056971;28;19916;-82
2023/06/07 01:07:50;;;;;;;;;;;15.00;99.90;;;;;;5058385;28;20619;-83
2023/06/07 01:10:16;;;;;;;;;;;14.90;99.90;;;;;;5059672;28;19923;-82
2023/06/07 01:12:43;;;;;;;;;;;14.90;99.90;;;;;;5055441;28;19939;-82
2023/06/07 01:15:10;;;;;;;;;;;14.80;99.90;;;;;;5060563;28;19954;-85
2023/06/07 01:17:37;;;;;;;;;;;14.80;99.90;;;;;;5058512;28;20589;-82
2023/06/07 01:20:04;;;;;;;;;;;14.80;99.90;;;;;;5060812;28;19908;-81
2023/06/07 01:22:32;;;;;;;;;;;14.90;99.90;;;;;;5057864;28;19974;-82
2023/06/07 01:25:00;;;;;;;;;;;14.90;99.90;;;;;;5055681;28;19966;-82
2023/06/07 01:27:27;;;;;;;;;;;14.90;99.90;;;;;;5057630;28;19923;-82
2023/06/07 01:29:53;;;;;;;;;;;14.80;99.90;;;;;;5062116;28;19912;-83
2023/06/07 01:32:19;;;;;;;;;;;14.80;99.90;;;;;;5053857;28;19916;-82
2023/06/07 01:34:46;;;;;;;;;;;14.70;99.90;;;;;;5062406;28;19923;-83
2023/06/07 01:37:11;;;;;;;;;;;14.80;99.90;;;;;;5061297;28;20014;-81
2023/06/07 01:39:39;;;;;;;;;;;14.90;99.90;;;;;;5059708;28;19916;-82
2023/06/07 01:42:06;;;;;;;;;;;14.90;99.90;;;;;;5060138;28;19912;-85
2023/06/07 01:44:31;;;;;;;;;;;14.90;99.90;;;;;;5062644;28;19908;-83
2023/06/07 01:46:57;;;;;;;;;;;15.00;99.90;;;;;;5060244;28;19961;-83
2023/06/07 01:49:23;;;;;;;;;;;14.90;99.90;;;;;;5062063;28;19908;-82
2023/06/07 01:51:48;;;;;;;;;;;14.90;99.90;;;;;;5062511;28;20007;-82
2023/06/07 01:54:15;;;;;;;;;;;14.90;99.90;;;;;;5062559;28;20317;-81
2023/06/07 01:56:48;;;;;;;;;;;14.80;99.90;;;;;;5062620;28;19914;-85
2023/06/07 01:59:23;;;;;;;;;;;14.80;99.90;;;;;;5061649;28;19943;-82
2023/06/07 02:01:49;;;;;;;;;;;14.90;99.90;;;;;;5062146;28;20493;-83
2023/06/07 02:04:17;;;;;;;;;;;14.90;99.90;;;;;;5061845;28;19912;-84
2023/06/07 02:06:44;;;;;;;;;;;14.80;99.90;;;;;;5063268;28;20014;-81
2023/06/07 02:09:11;;;;;;;;;;;14.80;99.90;;;;;;5058528;28;19916;-84
2023/06/07 02:11:37;;;;;;;;;;;14.80;99.90;;;;;;5056008;28;20030;-81
2023/06/07 02:14:03;;;;;;;;;;;14.70;99.90;;;;;;5041798;28;19916;-84
2023/06/07 02:16:32;;;;;;;;;;;14.70;99.90;;;;;;5062123;28;19912;-82
2023/06/07 02:18:58;;;;;;;;;;;14.80;99.90;;;;;;5058962;28;20038;-83
2023/06/07 02:21:24;;;;;;;;;;;14.70;99.90;;;;;;5058789;28;19916;-83
2023/06/07 02:23:50;;;;;;;;;;;14.70;99.90;;;;;;5057437;28;19912;-81
2023/06/07 02:26:16;;;;;;;;;;;14.70;99.90;;;;;;5057917;28;19912;-83
2023/06/07 02:28:41;;;;;;;;;;;14.70;99.90;;;;;;5049565;28;19913;-83
2023/06/07 02:31:07;;;;;;;;;;;14.70;99.90;;;;;;5063983;28;19912;-84
2023/06/07 02:33:32;;;;;;;;;;;14.70;99.90;;;;;;5062941;28;19948;-83
2023/06/07 02:35:58;;;;;;;;;;;14.70;99.90;;;;;;5064368;28;19926;-80
2023/06/07 02:38:24;;;;;;;;;;;14.60;99.90;;;;;;5058242;28;19923;-81
2023/06/07 02:40:49;;;;;;;;;;;14.50;99.90;;;;;;5065499;28;19919;-84
2023/06/07 02:43:15;;;;;;;;;;;14.40;99.90;;;;;;5060074;28;21047;-83
2023/06/07 02:45:40;;;;;;;;;;;14.30;99.90;;;;;;5064213;28;19912;-82
2023/06/07 02:48:07;;;;;;;;;;;14.20;99.90;;;;;;5064921;28;20439;-80
2023/06/07 02:50:32;;;;;;;;;;;14.20;99.90;;;;;;5057195;28;20131;-83
2023/06/07 02:52:59;;;;;;;;;;;14.20;99.90;;;;;;5064383;28;20589;-83
2023/06/07 02:55:25;;;;;;;;;;;14.20;99.90;;;;;;5060427;28;19959;-81
2023/06/07 02:57:50;;;;;;;;;;;14.20;99.90;;;;;;5064153;28;19999;-82
2023/06/07 03:00:16;;;;;;;;;;;14.20;99.90;;;;;;5063883;28;19954;-82
2023/06/07 03:02:42;;;;;;;;;;;14.20;99.90;;;;;;5055541;28;19912;-80
2023/06/07 03:05:08;;;;;;;;;;;14.10;99.90;;;;;;5065107;28;19915;-83
2023/06/07 03:07:35;;;;;;;;;;;14.00;99.90;;;;;;5059052;28;19920;-83
2023/06/07 03:10:01;;;;;;;;;;;14.10;99.90;;;;;;5063214;28;19993;-80
2023/06/07 03:12:26;;;;;;;;;;;14.00;99.90;;;;;;5057281;28;19916;-81
2023/06/07 03:14:52;;;;;;;;;;;14.00;99.90;;;;;;5044020;28;20375;-80
2023/06/07 03:17:17;;;;;;;;;;;14.00;99.90;;;;;;5036205;28;19912;-83
2023/06/07 03:19:43;;;;;;;;;;;14.00;99.90;;;;;;5064499;28;19908;-82
2023/06/07 03:22:09;;;;;;;;;;;14.00;99.90;;;;;;5063328;28;19919;-82
2023/06/07 03:24:36;;;;;;;;;;;13.90;99.90;;;;;;5058425;28;19958;-82
2023/06/07 03:27:03;;;;;;;;;;;13.90;99.90;;;;;;5056960;28;19908;-79
2023/06/07 03:29:30;;;;;;;;;;;14.00;99.90;;;;;;5056031;28;19912;-82
2023/06/07 03:31:55;;;;;;;;;;;13.90;99.90;;;;;;5064473;28;19974;-82
2023/06/07 03:34:21;;;;;;;;;;;13.80;99.90;;;;;;5064323;28;19923;-81
2023/06/07 03:36:47;;;;;;;;;;;13.90;99.90;;;;;;5063592;28;19909;-81
2023/06/07 03:39:13;;;;;;;;;;;13.90;99.90;;;;;;5045585;28;19954;-83
2023/06/07 03:41:38;;;;;;;;;;;13.90;99.90;;;;;;5061155;28;19916;-81
2023/06/07 03:44:04;;;;;;;;;;;13.90;99.90;;;;;;5060767;28;19912;-81
2023/06/07 03:46:30;;;;;;;;;;;13.80;99.90;;;;;;5058951;28;20417;-80
2023/06/07 03:48:55;;;;;;;;;;;13.80;99.90;;;;;;5061193;28;19923;-80
2023/06/07 03:51:21;;;;;;;;;;;13.70;99.90;;;;;;5055163;28;19966;-81
2023/06/07 03:53:47;;;;;;;;;;;13.70;99.90;;;;;;5060257;28;19916;-80
2023/06/07 03:56:12;;;;;;;;;;;13.80;99.90;;;;;;5063722;28;20357;-79
2023/06/07 03:58:38;;;;;;;;;;;13.70;99.90;;;;;;5063669;28;19978;-83
2023/06/07 04:01:03;;;;;;;;;;;13.60;99.90;;;;;;5064425;28;20554;-87
2023/06/07 04:03:30;;;;;;;;;;;13.70;99.90;;;;;;5061058;28;20019;-84
2023/06/07 04:05:56;;;;;;;;;;;13.70;99.90;;;;;;5063425;28;19962;-83
2023/06/07 04:08:22;;;;;;;;;;;13.60;99.90;;;;;;5061079;28;19951;-82
2023/06/07 04:10:48;;;;;;;;;;;13.70;99.90;;;;;;5063751;28;19962;-86
2023/06/07 04:13:14;;;;;;;;;;;13.70;99.90;;;;;;5046407;28;19912;-82
2023/06/07 04:15:40;;;;;;;;;;;13.70;99.90;;;;;;5063670;28;19950;-84
2023/06/07 04:18:06;;;;;;;;;;;13.60;99.90;;;;;;5062804;28;20387;-83
2023/06/07 04:20:31;;;;;;;;;;;13.70;99.90;;;;;;5065112;28;19994;-84
2023/06/07 04:22:57;;;;;;;;;;;13.60;99.90;;;;;;5043316;28;19908;-79
2023/06/07 04:25:31;;;;;;;;;;;13.60;99.90;;;;;;5026599;28;19916;-81
2023/06/07 04:27:59;;;;;;;;;;;13.80;99.90;;;;;;5062109;28;19912;-81
2023/06/07 04:30:34;;;;;;;;;;;14.30;99.90;;;;;;5062858;28;20751;-79
2023/06/07 04:33:04;;;;;;;;;;;14.60;99.90;;;;;;5051138;28;19998;-83
2023/06/07 04:35:31;;;;;;;;;;;14.90;99.70;;;;;;5062459;28;20050;-83
2023/06/07 04:37:57;;;;;;;;;;;15.10;99.00;;;;;;5061190;28;20654;-80
2023/06/07 04:40:23;;;;;;;;;;;15.40;98.10;;;;;;5052796;28;19985;-84
2023/06/07 04:42:55;;;;;;;;;;;15.70;97.40;;;;;;5062128;28;19908;-81
2023/06/07 04:45:31;;;;;;;;;;;15.90;96.90;;;;;;5062705;28;20022;-79
2023/06/07 04:47:58;;;;;;;;;;;16.10;96.20;;;;;;5053374;28;19969;-82
2023/06/07 04:50:23;;;;;;;;;;;15.90;96.50;;;;;;5062278;28;19912;-85
2023/06/07 04:52:49;;;;;;;;;;;16.20;96.00;;;;;;5048600;28;19944;-86
2023/06/07 04:55:15;;;;;;;;;;;16.30;95.40;;;;;;5054316;28;20498;-79
2023/06/07 04:57:42;;;;;;;;;;;16.80;94.40;;;;;;5042813;28;19939;-79
2023/06/07 05:00:11;;;;;;;;;;;17.00;93.50;;;;;;5054178;28;19912;-82
2023/06/07 05:02:41;;;;;;;;;;;17.20;93.10;;;;;;5042684;28;19912;-80
2023/06/07 05:05:08;;;;;;;;;;;17.40;92.70;;;;;;5038039;28;20345;-79
2023/06/07 05:07:33;;;;;;;;;;;17.60;91.70;;;;;;5060475;28;20763;-83
2023/06/07 05:09:59;;;;;;;;;;;17.90;91.60;;;;;;5058282;28;19920;-83
2023/06/07 05:12:24;;;;;;;;;;;18.00;91.20;;;;;;5056810;28;20495;-80
2023/06/07 05:14:50;;;;;;;;;;;17.90;91.20;;;;;;5056274;28;20382;-88
2023/06/07 05:17:19;;;;;;;;;;;18.00;90.80;;;;;;5059052;28;20404;-86
2023/06/07 05:19:44;;;;;;;;;;;17.80;91.30;;;;;;5055719;28;19978;-88
2023/06/07 05:22:10;;;;;;;;;;;18.00;90.90;;;;;;5041988;28;19912;-86
2023/06/07 05:24:35;;;;;;;;;;;18.60;90.10;;;;;;5056660;28;19912;-87
2023/06/07 05:27:01;;;;;;;;;;;18.70;88.50;;;;;;5038838;28;19913;-82
2023/06/07 05:29:27;;;;;;;;;;;18.90;87.70;;;;;;5048509;28;19977;-79
2023/06/07 05:31:52;;;;;;;;;;;19.50;86.00;;;;;;5060712;28;19912;-79
2023/06/07 05:34:18;;;;;;;;;;;20.90;81.60;;;;;;5060854;28;20873;-81
2023/06/07 05:36:43;;;;;;;;;;;21.10;79.00;;;;;;5035161;28;20550;-79
2023/06/07 05:39:09;;;;;;;;;;;21.00;78.20;;;;;;5059040;28;19919;-79
2023/06/07 05:41:36;;;;;;;;;;;21.10;77.90;;;;;;5063894;28;19922;-80
2023/06/07 05:44:02;;;;;;;;;;;21.50;76.40;;;;;;5065460;28;19959;-79
2023/06/07 05:46:27;;;;;;;;;;;21.40;76.10;;;;;;5065126;28;20019;-79
2023/06/07 05:48:53;;;;;;;;;;;21.20;75.70;;;;;;5064376;28;19951;-79
2023/06/07 05:51:18;;;;;;;;;;;21.50;75.30;;;;;;5064055;28;19974;-80
2023/06/07 05:53:44;;;;;;;;;;;21.50;74.80;;;;;;5064461;28;19969;-80
2023/06/07 05:56:11;;;;;;;;;;;21.70;74.20;;;;;;5067561;28;19924;-81
2023/06/07 05:58:37;;;;;;;;;;;22.10;72.10;;;;;;5059559;28;19919;-80
2023/06/07 06:01:05;;;;;;;;;;;23.00;70.50;;;;;;5063875;28;20344;-80
2023/06/07 06:03:30;;;;;;;;;;;22.90;69.10;;;;;;5064923;28;19916;-81
2023/06/07 06:05:56;;;;;;;;;;;23.20;67.90;;;;;;5065561;28;19908;-80
2023/06/07 06:08:22;;;;;;;;;;;23.70;67.00;;;;;;5056535;28;19940;-80
2023/06/07 06:10:47;;;;;;;;;;;23.90;66.20;;;;;;5047050;28;20215;-81
2023/06/07 06:13:13;;;;;;;;;;;23.80;66.70;;;;;;5057940;28;20404;-81
2023/06/07 06:15:38;;;;;;;;;;;24.20;65.70;;;;;;5062784;28;19959;-78
2023/06/07 06:18:04;;;;;;;;;;;24.60;63.40;;;;;;5064954;28;19908;-79
2023/06/07 06:20:33;;;;;;;;;;;25.10;62.60;;;;;;5064656;28;19920;-79
2023/06/07 06:22:59;;;;;;;;;;;25.00;63.60;;;;;;5043704;28;20848;-80
2023/06/07 06:25:25;;;;;;;;;;;24.60;62.50;;;;;;5054328;28;20402;-79
2023/06/07 06:27:51;;;;;;;;;;;24.70;62.50;;;;;;5053724;28;19916;-78
2023/06/07 06:30:16;;;;;;;;;;;25.20;61.60;;;;;;5065451;28;20003;-79
2023/06/07 06:32:42;;;;;;;;;;;24.80;61.60;;;;;;5058159;28;19955;-82
2023/06/07 06:35:08;;;;;;;;;;;25.10;60.20;;;;;;5058387;28;20030;-82
2023/06/07 06:37:33;;;;;;;;;;;25.60;60.40;;;;;;5065021;28;20838;-82
2023/06/07 06:39:59;;;;;;;;;;;25.60;59.80;;;;;;5065512;28;19912;-81
2023/06/07 06:42:24;;;;;;;;;;;26.10;59.20;;;;;;5065131;28;19912;-83
2023/06/07 06:44:50;;;;;;;;;;;27.20;58.00;;;;;;5065233;28;19912;-82
2023/06/07 06:47:16;;;;;;;;;;;26.70;57.30;;;;;;5060255;28;19916;-81
2023/06/07 06:49:41;;;;;;;;;;;26.50;58.60;;;;;;5065295;28;19931;-82
2023/06/07 06:52:07;;;;;;;;;;;27.10;57.00;;;;;;5063673;28;19908;-82
2023/06/07 06:54:32;;;;;;;;;;;26.60;57.50;;;;;;5065129;28;20318;-82
2023/06/07 06:56:58;;;;;;;;;;;27.20;56.30;;;;;;5064596;28;20179;-83
2023/06/07 06:59:24;;;;;;;;;;;28.40;56.30;;;;;;5064659;28;20011;-81
2023/06/07 07:01:50;;;;;;;;;;;27.60;55.10;;;;;;5064408;28;20445;-85
2023/06/07 07:04:16;;;;;;;;;;;28.30;54.40;;;;;;5064243;28;19974;-82
2023/06/07 07:06:42;;;;;;;;;;;27.90;54.30;;;;;;5063648;28;20687;-82
2023/06/07 07:09:09;;;;;;;;;;;28.30;53.30;;;;;;5064458;28;19991;-83
2023/06/07 07:11:35;;;;;;;;;;;29.10;53.10;;;;;;5064594;28;19908;-83
2023/06/07 07:14:00;;;;;;;;;;;30.30;52.90;;;;;;5064271;28;19908;-82
2023/06/07 07:16:26;;;;;;;;;;;30.00;51.40;;;;;;5061853;28;19915;-83
2023/06/07 07:18:51;;;;;;;;;;;29.80;51.90;;;;;;5064345;28;19909;-82
2023/06/07 07:21:17;;;;;;;;;;;30.10;52.90;;;;;;5063984;28;19906;-82
2023/06/07 07:23:43;;;;;;;;;;;31.10;51.20;;;;;;5064407;28;19908;-82
2023/06/07 07:26:08;;;;;;;;;;;30.00;51.00;;;;;;5064221;28;19909;-82
2023/06/07 07:28:34;;;;;;;;;;;30.10;51.50;;;;;;5064352;28;19909;-82
2023/06/07 07:30:59;;;;;;;;;;;30.20;50.50;;;;;;5046282;28;19908;-85
2023/06/07 07:33:25;;;;;;;;;;;31.10;50.00;;;;;;5063918;28;19908;-84
2023/06/07 07:35:52;;;;;;;;;;;31.80;47.50;;;;;;5064031;28;19916;-82
2023/06/07 07:38:17;;;;;;;;;;;31.30;49.60;;;;;;5063920;28;19915;-82
2023/06/07 07:40:47;;;;;;;;;;;30.60;48.70;;;;;;5064632;28;19909;-82
2023/06/07 07:43:12;;;;;;;;;;;31.30;48.80;;;;;;5045744;28;20503;-81
2023/06/07 07:45:38;;;;;;;;;;;32.30;47.30;;;;;;5063558;28;19916;-82
2023/06/07 07:48:03;;;;;;;;;;;32.60;47.30;;;;;;5063531;28;19934;-82
2023/06/07 07:50:29;;;;;;;;;;;31.90;47.10;;;;;;5054304;28;19990;-84
2023/06/07 07:52:56;;;;;;;;;;;33.10;46.20;;;;;;5063804;28;19912;-82
2023/06/07 07:55:22;;;;;;;;;;;32.40;46.80;;;;;;5039987;28;20306;-83
2023/06/07 07:57:48;;;;;;;;;;;33.50;47.70;;;;;;5063476;28;19919;-83
2023/06/07 08:00:14;;;;;;;;;;;33.50;46.80;;;;;;5058027;28;19909;-83
2023/06/07 08:02:40;;;;;;;;;;;32.80;45.00;;;;;;5063076;28;19908;-83
2023/06/07 08:05:06;;;;;;;;;;;33.30;44.50;;;;;;5057337;28;19938;-83
2023/06/07 08:07:32;;;;;;;;;;;34.00;45.80;;;;;;5062392;28;19920;-82
2023/06/07 08:09:58;;;;;;;;;;;33.30;43.30;;;;;;5057426;28;19938;-82
2023/06/07 08:12:23;;;;;;;;;;;34.00;44.50;;;;;;5055963;28;19999;-83
2023/06/07 08:14:49;;;;;;;;;;;34.40;44.00;;;;;;5035879;28;19978;-83
2023/06/07 08:17:15;;;;;;;;;;;34.90;41.80;;;;;;5062519;28;19987;-82
2023/06/07 08:19:40;;;;;;;;;;;35.40;43.50;;;;;;5055066;28;19908;-82
2023/06/07 08:22:06;;;;;;;;;;;35.50;43.10;;;;;;5061472;28;19909;-84
2023/06/07 08:24:32;;;;;;;;;;;36.10;43.20;;;;;;5062703;28;19908;-83
2023/06/07 08:26:57;;;;;;;;;;;36.70;42.40;;;;;;5063355;28;19908;-85
2023/06/07 08:29:23;;;;;;;;;;;36.80;40.70;;;;;;5063180;28;19908;-84
2023/06/07 08:31:48;;;;;;;;;;;36.40;40.70;;;;;;5063505;28;19909;-82
2023/06/07 08:34:14;;;;;;;;;;;37.10;40.80;;;;;;5062739;28;19919;-81
2023/06/07 08:36:40;;;;;;;;;;;37.20;40.00;;;;;;5063463;28;19908;-84
2023/06/07 08:39:07;;;;;;;;;;;36.00;38.90;;;;;;5063078;28;20562;-83
2023/06/07 08:41:32;;;;;;;;;;;37.00;40.30;;;;;;5063481;28;19908;-83
2023/06/07 08:43:58;;;;;;;;;;;36.80;39.40;;;;;;5061947;28;19958;-84
2023/06/07 08:46:23;;;;;;;;;;;37.10;39.00;;;;;;5062659;28;19915;-83
2023/06/07 08:48:49;;;;;;;;;;;38.10;39.30;;;;;;5062549;28;19915;-83
2023/06/07 08:51:16;;;;;;;;;;;38.30;38.60;;;;;;5063213;28;19982;-83
2023/06/07 08:53:44;;;;;;;;;;;38.70;38.30;;;;;;5063004;28;19979;-83
2023/06/07 08:56:10;;;;;;;;;;;38.60;37.20;;;;;;5062571;28;19923;-82
2023/06/07 08:58:37;;;;;;;;;;;39.30;37.90;;;;;;5062584;28;19908;-82
2023/06/07 09:01:02;;;;;;;;;;;39.60;38.30;;;;;;5062424;28;19916;-82
2023/06/07 09:03:28;;;;;;;;;;;39.60;39.40;;;;;;5062042;28;20572;-83
2023/06/07 09:05:56;;;;;;;;;;;39.60;37.50;;;;;;5062389;28;20470;-84
2023/06/07 09:08:22;;;;;;;;;;;39.70;37.00;;;;;;5062405;28;19950;-83
2023/06/07 09:10:47;;;;;;;;;;;40.60;36.80;;;;;;5056745;28;19908;-83
2023/06/07 09:13:19;;;;;;;;;;;40.50;36.60;;;;;;5062017;28;20399;-83
2023/06/07 09:15:47;;;;;;;;;;;40.20;38.20;;;;;;5054733;28;19912;-83
2023/06/07 09:18:13;;;;;;;;;;;38.00;38.10;;;;;;5066648;28;19909;-83
2023/06/07 09:20:38;;;;;;;;;;;38.00;37.80;;;;;;5066509;28;20380;-83
2023/06/07 09:23:08;;;;;;;;;;;38.20;37.50;;;;;;5047854;28;20478;-82
2023/06/07 09:25:35;;;;;;;;;;;38.40;38.40;;;;;;5066239;28;19916;-82
2023/06/07 09:28:08;;;;;;;;;;;38.60;36.40;;;;;;5047954;28;20511;-84
2023/06/07 09:30:33;;;;;;;;;;;39.20;34.90;;;;;;5066108;28;19915;-83
2023/06/07 09:32:59;;;;;;;;;;;40.40;33.50;;;;;;5047850;28;20470;-83
2023/06/07 09:35:25;;;;;;;;;;;39.40;35.00;;;;;;5066144;28;19923;-82
2023/06/07 09:37:52;;;;;;;;;;;39.70;34.70;;;;;;5066620;28;19908;-83
2023/06/07 09:40:18;;;;;;;;;;;39.70;35.00;;;;;;5066690;28;20007;-83
2023/06/07 09:42:44;;;;;;;;;;;39.20;35.00;;;;;;5047472;28;19908;-82
2023/06/07 09:45:14;;;;;;;;;;;39.90;33.60;;;;;;5066478;28;20446;-83
2023/06/07 09:47:41;;;;;;;;;;;39.80;32.60;;;;;;5064082;28;19942;-85
2023/06/07 09:50:07;;;;;;;;;;;38.80;33.60;;;;;;5066259;28;19915;-82
2023/06/07 09:52:33;;;;;;;;;;;38.70;33.90;;;;;;5065615;28;19994;-83
2023/06/07 09:54:58;;;;;;;;;;;37.20;37.60;;;;;;5066022;28;19916;-82
2023/06/07 09:57:24;;;;;;;;;;;38.50;35.80;;;;;;5047561;28;19918;-81
2023/06/07 10:00:00;;;;;;;;;;;40.00;34.30;;;;;;5065802;28;19908;-82
2023/06/07 10:02:26;;;;;;;;;;;40.30;33.30;;;;;;5065441;28;19909;-81
2023/06/07 10:04:52;;;;;;;;;;;39.10;34.00;;;;;;5065947;28;19917;-80
2023/06/07 10:07:21;;;;;;;;;;;38.90;33.30;;;;;;5046336;28;20345;-80
2023/06/07 10:09:48;;;;;;;;;;;39.60;34.00;;;;;;5066380;28;19912;-80
2023/06/07 10:12:15;;;;;;;;;;;40.40;33.30;;;;;;5065652;28;19908;-80
2023/06/07 10:14:43;;;;;;;;;;;40.00;34.80;;;;;;5061891;28;19916;-81
2023/06/07 10:17:10;;;;;;;;;;;41.00;34.70;;;;;;5062619;28;19908;-79
2023/06/07 10:19:40;;;;;;;;;;;40.60;32.60;;;;;;5056203;28;20455;-81
2023/06/07 10:22:11;;;;;;;;;;;38.50;34.30;;;;;;5065110;28;19914;-80
2023/06/07 10:24:40;;;;;;;;;;;39.90;33.60;;;;;;5064946;28;19995;-81
2023/06/07 10:27:09;;;;;;;;;;;38.50;31.90;;;;;;5064806;28;19908;-81
2023/06/07 10:29:34;;;;;;;;;;;38.70;31.60;;;;;;5064940;28;20025;-81
2023/06/07 10:32:07;;;;;;;;;;;38.60;31.00;;;;;;5064991;28;20429;-81
2023/06/07 10:34:36;;;;;;;;;;;38.90;35.50;;;;;;5065859;28;19995;-81
2023/06/07 10:37:02;;;;;;;;;;;39.10;31.70;;;;;;5063759;28;20035;-81
2023/06/07 10:39:28;;;;;;;;;;;37.80;30.80;;;;;;5062573;28;20007;-81
2023/06/07 10:41:54;;;;;;;;;;;37.60;31.60;;;;;;5065115;28;19908;-81
2023/06/07 10:44:19;;;;;;;;;;;35.10;34.20;;;;;;5064232;28;19916;-80
2023/06/07 10:46:45;;;;;;;;;;;34.60;33.30;;;;;;5064675;28;19965;-80
2023/06/07 10:49:29;;;;;;;;;;;33.40;34.70;;;;;;5064831;28;19915;-80
2023/06/07 10:51:58;;;;;;;;;;;32.20;35.70;;;;;;5064596;28;19947;-80
2023/06/07 10:54:28;;;;;;;;;;;31.80;35.40;;;;;;5065042;28;20407;-80
2023/06/07 10:56:53;;;;;;;;;;;31.10;37.30;;;;;;5064835;28;20003;-81
2023/06/07 10:59:22;;;;;;;;;;;31.40;39.80;;;;;;5059232;28;20863;-81
2023/06/07 11:01:49;;;;;;;;;;;30.20;37.00;;;;;;5058356;28;19908;-80
2023/06/07 11:04:39;;;;;;;;;;;30.70;38.90;;;;;;5064405;28;19939;-82
2023/06/07 11:07:14;;;;;;;;;;;31.00;36.90;;;;;;5063863;28;19931;-80
2023/06/07 11:09:39;;;;;;;;;;;30.30;36.90;;;;;;5064926;28;19912;-82
2023/06/07 11:12:06;;;;;;;;;;;30.50;37.60;;;;;;5064693;28;19912;-80
2023/06/07 11:14:31;;;;;;;;;;;30.10;37.00;;;;;;5062389;28;20441;-79
2023/06/07 11:16:57;;;;;;;;;;;30.00;39.10;;;;;;5061255;28;19904;-80
2023/06/07 11:19:22;;;;;;;;;;;29.90;36.70;;;;;;5064430;28;20426;-79
2023/06/07 11:21:57;;;;;;;;;;;29.80;36.70;;;;;;5064544;28;20369;-80
2023/06/07 11:24:23;;;;;;;;;;;29.70;39.30;;;;;;5064625;28;19915;-82
2023/06/07 11:26:50;;;;;;;;;;;29.90;38.90;;;;;;5064630;28;20452;-79
2023/06/07 11:29:19;;;;;;;;;;;29.80;40.80;;;;;;5064445;28;19934;-81
2023/06/07 11:31:46;;;;;;;;;;;28.80;39.40;;;;;;5064063;28;19908;-80
2023/06/07 11:34:14;;;;;;;;;;;28.80;42.90;;;;;;5064115;28;19989;-81
2023/06/07 11:36:40;;;;;;;;;;;29.20;39.90;;;;;;5064271;28;19919;-80
2023/06/07 11:39:08;;;;;;;;;;;28.90;39.40;;;;;;5063317;28;20450;-81
2023/06/07 11:41:34;;;;;;;;;;;28.70;39.40;;;;;;5064120;28;20485;-80
2023/06/07 11:44:01;;;;;;;;;;;29.00;42.30;;;;;;5063418;28;20302;-81
2023/06/07 11:46:36;;;;;;;;;;;29.10;40.40;;;;;;5061686;28;19916;-80
2023/06/07 11:49:05;;;;;;;;;;;28.80;38.80;;;;;;5060602;28;19943;-80
2023/06/07 11:51:31;;;;;;;;;;;28.40;37.80;;;;;;5063466;28;19912;-82
2023/06/07 11:54:00;;;;;;;;;;;28.60;38.90;;;;;;5063331;28;20333;-81
2023/06/07 11:56:27;;;;;;;;;;;28.50;39.70;;;;;;5063617;28;19909;-80
2023/06/07 11:58:53;;;;;;;;;;;28.40;40.30;;;;;;5063382;28;19908;-80
2023/06/07 12:01:19;;;;;;;;;;;28.60;40.00;;;;;;5063827;28;19939;-79
2023/06/07 12:03:45;;;;;;;;;;;28.50;42.70;;;;;;5063145;28;19978;-79
2023/06/07 12:06:11;;;;;;;;;;;28.60;42.70;;;;;;5063084;28;19924;-80
2023/06/07 12:08:37;;;;;;;;;;;28.70;42.60;;;;;;5062971;28;19919;-80
2023/06/07 12:11:03;;;;;;;;;;;28.60;41.50;;;;;;5063513;28;19912;-79
2023/06/07 12:13:34;;;;;;;;;;;28.40;41.00;;;;;;5063785;28;20510;-81
2023/06/07 12:16:00;;;;;;;;;;;28.40;39.30;;;;;;5062948;28;19909;-83
2023/06/07 12:18:26;;;;;;;;;;;28.20;39.70;;;;;;5062697;28;20010;-80
2023/06/07 12:21:04;;;;;;;;;;;28.30;40.70;;;;;;5062495;28;19915;-82
2023/06/07 12:23:31;;;;;;;;;;;28.20;42.50;;;;;;5062773;28;19954;-82
2023/06/07 12:26:14;;;;;;;;;;;28.20;41.40;;;;;;5062693;28;19916;-80
2023/06/07 12:34:46;;;;;;;;;;;27.90;40.60;;;;;;5062670;28;20031;-80
2023/06/07 12:37:12;;;;;;;;;;;28.20;44.00;;;;;;5062843;28;19999;-80
2023/06/07 12:39:38;;;;;;;;;;;28.10;39.30;;;;;;5063473;28;19934;-82
2023/06/07 12:42:04;;;;;;;;;;;28.00;41.60;;;;;;5063254;28;19904;-80
2023/06/07 12:44:29;;;;;;;;;;;27.90;39.70;;;;;;5062118;28;19912;-82
2023/06/07 12:46:55;;;;;;;;;;;27.80;42.90;;;;;;5056351;28;20527;-82
2023/06/07 12:49:21;;;;;;;;;;;27.80;43.10;;;;;;5057281;28;19915;-81
2023/06/07 12:51:46;;;;;;;;;;;27.90;45.40;;;;;;5057606;28;20748;-79
2023/06/07 12:54:13;;;;;;;;;;;27.70;40.50;;;;;;5057828;28;19909;-80
2023/06/07 12:56:39;;;;;;;;;;;27.90;41.60;;;;;;5062303;28;19961;-81
2023/06/07 12:59:04;;;;;;;;;;;28.00;41.80;;;;;;5062745;28;19909;-81
2023/06/07 13:01:30;;;;;;;;;;;27.90;41.90;;;;;;5062076;28;19908;-81
2023/06/07 13:03:55;;;;;;;;;;;27.80;42.70;;;;;;5056305;28;20390;-81
2023/06/07 13:06:22;;;;;;;;;;;27.70;43.00;;;;;;5058812;28;20455;-80
2023/06/07 13:08:56;;;;;;;;;;;27.70;44.20;;;;;;5060501;28;19919;-81
2023/06/07 13:11:22;;;;;;;;;;;27.50;42.50;;;;;;5056762;28;20364;-80
2023/06/07 13:13:48;;;;;;;;;;;27.70;42.60;;;;;;5034418;28;20008;-80
2023/06/07 13:16:14;;;;;;;;;;;27.70;41.30;;;;;;5062628;28;19919;-80
2023/06/07 13:18:39;;;;;;;;;;;27.60;41.80;;;;;;5056521;28;19912;-80
2023/06/07 13:21:05;;;;;;;;;;;27.50;43.30;;;;;;5055355;28;19922;-82
2023/06/07 13:23:31;;;;;;;;;;;27.60;43.70;;;;;;5062463;28;19915;-81
2023/06/07 13:25:56;;;;;;;;;;;27.70;44.20;;;;;;5061700;28;19942;-80
2023/06/07 13:28:22;;;;;;;;;;;27.60;44.60;;;;;;5062518;28;19943;-81
2023/06/07 13:30:47;;;;;;;;;;;27.60;45.40;;;;;;5062511;28;19908;-82
2023/06/07 13:33:17;;;;;;;;;;;27.50;47.00;;;;;;5062179;28;19913;-81
2023/06/07 13:35:42;;;;;;;;;;;27.60;44.30;;;;;;5059857;28;19913;-80
2023/06/07 13:38:08;;;;;;;;;;;27.50;44.80;;;;;;5062364;28;19970;-81
2023/06/07 13:40:33;;;;;;;;;;;27.50;43.20;;;;;;5044145;28;19912;-81
2023/06/07 13:42:59;;;;;;;;;;;27.60;45.30;;;;;;5043486;28;19922;-79
2023/06/07 13:45:25;;;;;;;;;;;27.60;44.00;;;;;;5061673;28;20017;-80
2023/06/07 13:47:52;;;;;;;;;;;27.40;44.40;;;;;;5061559;28;20684;-82
2023/06/07 13:50:17;;;;;;;;;;;27.40;44.80;;;;;;5055058;28;19905;-79
2023/06/07 13:52:43;;;;;;;;;;;27.30;45.00;;;;;;5062241;28;20421;-81
2023/06/07 13:55:09;;;;;;;;;;;27.40;45.40;;;;;;5058180;28;19908;-82
2023/06/07 13:57:36;;;;;;;;;;;27.40;42.90;;;;;;5057828;28;20642;-82
2023/06/07 14:00:03;;;;;;;;;;;27.30;42.20;;;;;;5062089;28;20219;-83
2023/06/07 14:02:29;;;;;;;;;;;27.30;41.00;;;;;;5056428;28;20511;-81
2023/06/07 14:04:54;;;;;;;;;;;27.30;41.50;;;;;;5063774;28;19924;-81
2023/06/07 14:07:20;;;;;;;;;;;27.30;41.00;;;;;;5065457;28;20686;-82
2023/06/07 14:09:46;;;;;;;;;;;27.20;40.20;;;;;;5063845;28;20665;-82
2023/06/07 14:12:12;;;;;;;;;;;27.20;41.00;;;;;;5065321;28;19954;-82
2023/06/07 14:14:38;;;;;;;;;;;27.40;42.00;;;;;;5063162;28;20667;-81
2023/06/07 14:17:04;;;;;;;;;;;27.50;42.20;;;;;;5064744;28;19924;-82
2023/06/07 14:19:30;;;;;;;;;;;27.40;43.80;;;;;;5064606;28;19905;-82